Time;durP1;ratioP1;P1;durP2;ratioP2;P2;SDS_P1;SDS_P2;PMS_P1;PMS_P2;Temp;Humidity;BMP_temperature;BMP_pressure;BME280_temperature;BME280_humidity;BME280_pressure;Samples;Min_cycle;Max_cycle;Signal;HPM_P1;HPM_P2
2024/02/11 00:02:03;;;;;;;26.65;10.55;;;;;;;9.43;100.00;98623.41;6301835;28;20052;-72
2024/02/11 00:05:07;;;;;;;24.20;9.27;;;;;;;9.38;100.00;98627.25;6301390;28;20048;-72
2024/02/11 00:08:10;;;;;;;28.77;10.20;;;;;;;9.38;100.00;98619.38;6300929;28;20059;-72
2024/02/11 00:11:12;;;;;;;28.55;10.50;;;;;;;9.39;100.00;98610.56;6301535;28;20060;-72
2024/02/11 00:14:14;;;;;;;24.95;9.07;;;;;;;9.37;100.00;98609.03;6300869;28;20579;-72
2024/02/11 00:17:19;;;;;;;24.42;8.52;;;;;;;9.31;100.00;98613.00;6300965;28;20048;-72
2024/02/11 00:20:20;;;;;;;29.77;9.73;;;;;;;9.35;100.00;98618.78;6301095;28;20348;-72
2024/02/11 00:23:22;;;;;;;31.08;10.43;;;;;;;9.32;100.00;98611.22;6300969;28;20044;-72
2024/02/11 00:26:24;;;;;;;23.88;9.05;;;;;;;9.27;100.00;98608.97;6301170;28;20956;-72
2024/02/11 00:29:25;;;;;;;29.42;10.52;;;;;;;9.32;100.00;98613.84;6300732;28;20045;-72
2024/02/11 00:32:28;;;;;;;21.35;9.07;;;;;;;9.31;100.00;98607.75;6300450;28;20056;-72
2024/02/11 00:35:29;;;;;;;22.05;8.80;;;;;;;9.36;100.00;98613.44;6300917;28;20048;-72
2024/02/11 00:38:32;;;;;;;22.15;9.65;;;;;;;9.30;100.00;98615.72;6300327;28;20055;-72
2024/02/11 00:41:33;;;;;;;26.20;9.05;;;;;;;9.30;100.00;98613.94;6300812;28;20044;-72
2024/02/11 00:44:34;;;;;;;26.98;8.88;;;;;;;9.29;100.00;98607.03;6300561;28;20438;-72
2024/02/11 00:47:37;;;;;;;32.38;9.75;;;;;;;9.32;100.00;98609.41;6300198;28;20048;-72
2024/02/11 00:50:38;;;;;;;26.50;9.82;;;;;;;9.33;100.00;98615.50;6300788;28;20044;-72
2024/02/11 00:53:39;;;;;;;28.73;9.43;;;;;;;9.29;100.00;98614.91;6300274;28;20052;-72
2024/02/11 00:56:41;;;;;;;22.35;9.73;;;;;;;9.30;100.00;98607.88;6300551;28;20344;-72
2024/02/11 00:59:43;;;;;;;30.40;10.07;;;;;;;9.33;100.00;98620.72;6299865;28;20048;-72
2024/02/11 01:02:45;;;;;;;26.60;9.90;;;;;;;9.34;100.00;98617.97;6300516;28;20052;-72
2024/02/11 01:05:47;;;;;;;26.88;8.88;;;;;;;9.33;100.00;98608.44;6300114;28;20055;-72
2024/02/11 01:08:49;;;;;;;27.42;10.65;;;;;;;9.27;100.00;98600.28;6299972;28;20056;-72
2024/02/11 01:11:50;;;;;;;26.52;8.98;;;;;;;9.20;100.00;98601.72;6300117;28;20135;-71
2024/02/11 01:14:55;;;;;;;36.28;10.73;;;;;;;9.15;100.00;98605.56;6299997;28;20055;-72
2024/02/11 01:17:58;;;;;;;29.70;9.80;;;;;;;9.16;100.00;98603.75;6299728;28;20048;-72
2024/02/11 01:20:59;;;;;;;31.15;9.95;;;;;;;9.18;100.00;98608.91;6300098;28;20048;-72
2024/02/11 01:24:02;;;;;;;21.15;8.50;;;;;;;9.11;100.00;98600.69;6299932;28;20052;-72
2024/02/11 01:27:04;;;;;;;23.77;8.82;;;;;;;9.14;100.00;98593.41;6299506;28;20053;-71
2024/02/11 01:30:07;;;;;;;22.42;9.90;;;;;;;9.05;100.00;98598.56;6300007;28;20048;-72
2024/02/11 01:33:10;;;;;;;27.77;9.55;;;;;;;9.08;100.00;98593.94;6299888;28;20480;-72
2024/02/11 01:36:11;;;;;;;27.95;9.20;;;;;;;9.07;100.00;98592.25;6300147;28;20129;-72
2024/02/11 01:39:14;;;;;;;29.42;10.05;;;;;;;9.09;100.00;98590.34;6299278;28;20187;-72
2024/02/11 01:42:15;;;;;;;22.65;8.93;;;;;;;8.99;100.00;98586.78;6299192;28;20075;-71
2024/02/11 01:45:17;;;;;;;29.05;10.00;;;;;;;8.99;100.00;98605.13;6300686;28;20352;-71
2024/02/11 01:48:20;;;;;;;23.55;9.35;;;;;;;9.01;100.00;98598.00;6304350;28;20643;-72
2024/02/11 01:51:21;;;;;;;23.83;9.57;;;;;;;8.98;100.00;98600.84;6304763;28;20356;-72
2024/02/11 01:54:23;;;;;;;30.38;8.95;;;;;;;8.98;100.00;98598.22;6304367;28;20052;-72
2024/02/11 01:57:24;;;;;;;25.40;9.63;;;;;;;8.98;100.00;98595.59;6304302;28;20055;-72
2024/02/11 02:00:26;;;;;;;23.58;8.25;;;;;;;8.98;100.00;98600.03;6304438;28;20049;-71
2024/02/11 02:03:29;;;;;;;21.23;8.73;;;;;;;8.93;100.00;98608.25;6304369;28;20060;-72
2024/02/11 02:06:30;;;;;;;25.00;7.97;;;;;;;8.96;100.00;98601.94;6304481;28;20056;-72
2024/02/11 02:09:32;;;;;;;18.67;7.22;;;;;;;8.98;100.00;98592.16;6304008;28;20048;-72
2024/02/11 02:12:34;;;;;;;20.42;8.32;;;;;;;8.94;100.00;98591.56;6325246;22;20040;-75
2024/02/11 02:15:35;;;;;;;27.77;8.50;;;;;;;8.84;100.00;98596.72;6304142;28;20060;-75
2024/02/11 02:18:38;;;;;;;21.52;7.95;;;;;;;8.80;100.00;98591.84;6303669;28;20044;-75
2024/02/11 02:21:47;;;;;;;22.30;8.60;;;;;;;8.77;100.00;98600.81;6304341;28;20428;-76
2024/02/11 02:24:49;;;;;;;23.77;7.95;;;;;;;8.85;100.00;98597.56;6303660;28;20387;-75
2024/02/11 02:27:50;;;;;;;25.70;9.00;;;;;;;8.85;100.00;98592.31;6303486;28;20416;-74
2024/02/11 02:30:52;;;;;;;25.67;8.43;;;;;;;8.86;100.00;98597.44;6303981;28;20057;-74
2024/02/11 02:33:53;;;;;;;25.35;8.35;;;;;;;8.86;100.00;98592.22;6303772;28;20055;-76
2024/02/11 02:36:56;;;;;;;26.88;8.38;;;;;;;8.87;100.00;98593.03;6303944;28;20055;-74
2024/02/11 02:39:57;;;;;;;25.35;9.25;;;;;;;8.83;100.00;98596.88;6303547;28;20051;-74
2024/02/11 02:42:58;;;;;;;26.08;8.70;;;;;;;8.85;100.00;98593.16;6303763;28;20052;-74
2024/02/11 02:46:00;;;;;;;22.80;7.97;;;;;;;8.81;100.00;98589.13;6303306;28;20126;-74
2024/02/11 02:49:01;;;;;;;25.23;9.10;;;;;;;8.85;100.00;98579.22;6303280;28;20437;-74
2024/02/11 02:52:06;;;;;;;26.35;9.10;;;;;;;8.83;100.00;98568.06;6303430;28;20055;-73
2024/02/11 02:55:09;;;;;;;19.23;7.82;;;;;;;8.87;100.00;98561.59;6303310;28;20056;-75
2024/02/11 02:58:13;;;;;;;22.20;8.15;;;;;;;8.75;100.00;98562.59;6302352;28;20060;-75
2024/02/11 03:01:19;;;;;;;20.60;8.50;;;;;;;8.77;100.00;98566.75;6303654;28;20044;-73
2024/02/11 03:04:20;;;;;;;20.38;8.55;;;;;;;8.80;100.00;98565.66;6302820;28;20358;-74
2024/02/11 03:07:23;;;;;;;21.92;8.25;;;;;;;8.78;100.00;98564.97;6303151;28;20052;-73
2024/02/11 03:10:25;;;;;;;19.88;8.90;;;;;;;8.81;100.00;98569.94;6303111;28;20044;-74
2024/02/11 03:13:26;;;;;;;23.30;8.30;;;;;;;8.81;100.00;98573.41;6302508;28;20333;-76
2024/02/11 03:16:28;;;;;;;23.33;7.97;;;;;;;8.80;100.00;98570.91;6303021;28;20048;-77
2024/02/11 03:19:29;;;;;;;29.25;8.05;;;;;;;8.77;100.00;98572.00;6302231;28;20086;-74
2024/02/11 03:22:32;;;;;;;27.23;9.63;;;;;;;8.77;100.00;98574.63;6302839;28;20055;-76
2024/02/11 03:25:34;;;;;;;24.35;8.60;;;;;;;8.77;100.00;98574.63;6278636;28;20045;-76
2024/02/11 03:28:35;;;;;;;24.52;8.60;;;;;;;8.75;100.00;98576.53;6265037;28;20049;-76
2024/02/11 03:31:36;;;;;;;22.73;8.50;;;;;;;8.79;100.00;98569.25;6276027;28;20441;-76
2024/02/11 03:34:38;;;;;;;28.73;8.65;;;;;;;8.80;100.00;98560.44;6277740;28;20057;-76
2024/02/11 03:37:40;;;;;;;24.27;8.30;;;;;;;8.76;100.00;98551.16;6277158;28;20052;-75
2024/02/11 03:40:42;;;;;;;28.77;9.60;;;;;;;8.76;100.00;98553.78;6277519;28;20465;-76
2024/02/11 03:43:43;;;;;;;27.15;9.65;;;;;;;8.78;100.00;98560.56;6276349;28;20048;-75
2024/02/11 03:46:45;;;;;;;27.27;9.80;;;;;;;8.79;100.00;98554.38;6277080;28;20353;-75
2024/02/11 03:49:46;;;;;;;34.38;10.70;;;;;;;8.75;100.00;98554.75;6276660;28;20390;-76
2024/02/11 03:52:49;;;;;;;26.80;9.43;;;;;;;8.74;100.00;98558.31;6274277;28;20053;-75
2024/02/11 03:55:50;;;;;;;28.67;9.77;;;;;;;8.73;100.00;98560.13;6276709;28;20441;-75
2024/02/11 03:58:51;;;;;;;23.08;8.45;;;;;;;8.69;100.00;98556.06;6276652;28;20049;-74
2024/02/11 04:01:53;;;;;;;33.00;9.18;;;;;;;8.68;100.00;98553.59;6276676;28;20048;-74
2024/02/11 04:04:54;;;;;;;31.42;10.57;;;;;;;8.67;100.00;98550.13;6276844;28;20056;-75
2024/02/11 04:07:57;;;;;;;33.92;9.70;;;;;;;8.70;100.00;98565.59;6275237;28;20051;-74
2024/02/11 04:10:59;;;;;;;29.02;9.38;;;;;;;8.72;100.00;98566.31;6276894;28;20053;-74
2024/02/11 04:14:00;;;;;;;26.00;9.68;;;;;;;8.81;100.00;98565.56;6276580;28;20053;-74
2024/02/11 04:17:02;;;;;;;31.25;10.13;;;;;;;8.92;100.00;98569.09;6276101;28;20551;-74
2024/02/11 04:20:08;;;;;;;29.40;9.30;;;;;;;8.90;100.00;98569.19;6276706;28;20498;-74
2024/02/11 04:23:13;;;;;;;25.27;9.20;;;;;;;8.85;100.00;98569.56;6276517;28;20048;-74
2024/02/11 04:26:17;;;;;;;34.10;10.98;;;;;;;8.86;100.00;98565.19;6276405;28;20075;-74
2024/02/11 04:29:19;;;;;;;35.85;10.65;;;;;;;8.90;100.00;98563.97;6276365;28;20063;-75
2024/02/11 04:32:22;;;;;;;29.80;9.40;;;;;;;8.93;100.00;98574.19;6276277;28;20041;-75
2024/02/11 04:35:24;;;;;;;29.15;9.93;;;;;;;8.94;100.00;98572.41;6288537;28;20049;-75
2024/02/11 04:38:27;;;;;;;27.88;10.30;;;;;;;8.86;100.00;98573.06;6300673;28;20052;-75
2024/02/11 04:41:28;;;;;;;32.20;11.05;;;;;;;8.82;100.00;98569.00;6300450;28;20051;-76
2024/02/11 04:44:31;;;;;;;30.48;11.07;;;;;;;8.88;100.00;98565.88;6300712;28;20051;-76
2024/02/11 04:47:35;;;;;;;30.83;11.18;;;;;;;8.88;100.00;98569.34;6300274;28;20428;-76
2024/02/11 04:50:38;;;;;;;35.15;10.75;;;;;;;8.91;100.00;98567.44;6300884;28;20344;-75
2024/02/11 04:53:41;;;;;;;40.20;11.55;;;;;;;8.92;100.00;98563.84;6300368;28;20051;-75
2024/02/11 04:56:46;;;;;;;38.58;11.70;;;;;;;8.86;100.00;98576.50;6300751;28;20048;-75
2024/02/11 04:59:47;;;;;;;33.90;11.63;;;;;;;8.88;100.00;98568.50;6300061;28;20074;-75
2024/02/11 05:02:50;;;;;;;35.58;11.48;;;;;;;8.84;100.00;98572.31;6300280;28;20361;-75
2024/02/11 05:05:51;;;;;;;35.13;10.85;;;;;;;8.84;100.00;98580.19;6300386;28;20388;-75
2024/02/11 05:08:55;;;;;;;32.25;11.57;;;;;;;8.87;100.00;98580.78;6299890;28;20455;-75
2024/02/11 05:11:57;;;;;;;38.55;11.38;;;;;;;8.84;100.00;98573.16;6300757;28;20048;-75
2024/02/11 05:14:58;;;;;;;33.83;11.30;;;;;;;8.83;100.00;98579.34;6299975;28;20052;-76
2024/02/11 05:18:00;;;;;;;32.67;11.70;;;;;;;8.86;100.00;98570.44;6300193;28;20048;-75
2024/02/11 05:21:03;;;;;;;38.25;11.38;;;;;;;8.84;100.00;98564.47;6300691;28;20048;-76
2024/02/11 05:24:06;;;;;;;28.35;10.75;;;;;;;8.79;100.00;98561.41;6300133;28;20045;-76
2024/02/11 05:27:08;;;;;;;35.03;12.52;;;;;;;8.80;100.00;98561.25;6299903;28;20045;-74
2024/02/11 05:30:11;;;;;;;34.53;12.35;;;;;;;8.75;100.00;98565.22;6300426;28;20040;-76
2024/02/11 05:33:15;;;;;;;43.45;12.95;;;;;;;8.74;100.00;98566.19;6299844;28;20141;-76
2024/02/11 05:36:18;;;;;;;31.00;12.20;;;;;;;8.76;100.00;98564.25;6300057;28;20052;-76
2024/02/11 05:39:22;;;;;;;47.88;12.50;;;;;;;8.76;100.00;98569.50;6299519;28;20332;-76
2024/02/11 05:42:23;;;;;;;42.88;11.80;;;;;;;8.73;100.00;98557.50;6293253;28;20041;-76
2024/02/11 05:45:24;;;;;;;33.47;11.20;;;;;;;8.74;100.00;98571.41;6274724;28;20045;-76
2024/02/11 05:48:26;;;;;;;37.28;12.13;;;;;;;8.79;100.00;98588.41;6274264;28;20052;-76
2024/02/11 05:51:28;;;;;;;35.20;11.52;;;;;;;8.76;100.00;98583.41;6274976;28;20052;-76
2024/02/11 05:54:30;;;;;;;48.28;12.45;;;;;;;8.76;100.00;98580.78;6274558;28;20060;-75
2024/02/11 05:57:32;;;;;;;41.53;12.75;;;;;;;8.74;100.00;98582.72;6274501;28;20056;-75
2024/02/11 06:00:36;;;;;;;33.35;11.68;;;;;;;8.77;100.00;98577.25;6274699;28;20429;-75
2024/02/11 06:03:39;;;;;;;33.97;12.05;;;;;;;8.75;100.00;98578.31;6274799;28;20049;-75
2024/02/11 06:06:40;;;;;;;43.00;12.18;;;;;;;8.77;100.00;98581.66;6274666;28;20053;-75
2024/02/11 06:09:43;;;;;;;42.03;13.05;;;;;;;8.81;100.00;98575.19;6274549;28;20049;-75
2024/02/11 06:12:47;;;;;;;39.92;12.95;;;;;;;8.71;100.00;98588.19;6274541;28;20048;-75
2024/02/11 06:15:48;;;;;;;38.78;12.30;;;;;;;8.68;100.00;98592.88;6274935;28;20060;-75
2024/02/11 06:18:49;;;;;;;40.72;13.80;;;;;;;8.74;100.00;98590.56;6274357;28;20053;-75
2024/02/11 06:21:51;;;;;;;38.42;11.73;;;;;;;8.78;100.00;98596.41;6274386;28;20445;-75
2024/02/11 06:24:54;;;;;;;41.95;11.80;;;;;;;8.80;100.00;98590.06;6274449;28;20059;-75
2024/02/11 06:27:55;;;;;;;34.78;11.07;;;;;;;8.79;100.00;98590.19;6274065;28;20053;-75
2024/02/11 06:30:57;;;;;;;40.05;12.82;;;;;;;8.82;100.00;98595.19;6275373;28;20348;-75
2024/02/11 06:34:00;;;;;;;38.47;11.80;;;;;;;8.76;100.00;98599.13;6278764;28;20056;-75
2024/02/11 06:37:01;;;;;;;36.58;12.10;;;;;;;8.69;100.00;98600.59;6278554;28;20134;-75
2024/02/11 06:40:05;;;;;;;38.85;12.13;;;;;;;8.74;100.00;98602.84;6278810;28;20045;-75
2024/02/11 06:43:11;;;;;;;39.45;11.90;;;;;;;8.74;100.00;98602.84;6279039;28;20045;-76
2024/02/11 06:46:12;;;;;;;40.80;11.15;;;;;;;8.74;100.00;98611.53;6278831;28;20060;-76
2024/02/11 06:49:14;;;;;;;34.28;11.75;;;;;;;8.79;100.00;98617.22;6278412;28;20075;-76
2024/02/11 06:52:15;;;;;;;46.40;14.45;;;;;;;8.74;100.00;98629.03;6278603;28;20049;-76
2024/02/11 06:55:19;;;;;;;37.80;11.82;;;;;;;8.74;100.00;98623.78;6278374;28;20139;-76
2024/02/11 06:58:21;;;;;;;41.45;12.65;;;;;;;8.76;100.00;98621.88;6277984;28;20048;-75
2024/02/11 07:01:22;;;;;;;35.47;12.88;;;;;;;8.75;100.00;98621.03;6278855;28;20055;-75
2024/02/11 07:04:24;;;;;;;42.55;12.88;;;;;;;8.74;100.00;98624.63;6277922;28;20112;-75
2024/02/11 07:07:25;;;;;;;37.50;12.90;;;;;;;8.76;100.00;98627.94;6277216;28;20345;-75
2024/02/11 07:10:28;;;;;;;46.80;13.90;;;;;;;8.70;100.00;98633.66;6253504;28;20053;-75
2024/02/11 07:13:29;;;;;;;39.55;12.73;;;;;;;8.70;100.00;98632.84;6252984;28;20049;-75
2024/02/11 07:16:31;;;;;;;39.78;11.57;;;;;;;8.77;100.00;98642.72;6253321;28;20064;-76
2024/02/11 07:19:33;;;;;;;35.45;11.60;;;;;;;8.72;100.00;98636.16;6252833;28;20140;-75
2024/02/11 07:22:34;;;;;;;33.03;11.30;;;;;;;8.76;100.00;98637.56;6253146;28;20041;-75
2024/02/11 07:25:38;;;;;;;37.60;12.10;;;;;;;8.72;100.00;98631.78;6253005;28;20080;-75
2024/02/11 07:28:39;;;;;;;41.83;12.50;;;;;;;8.72;100.00;98626.53;6252440;28;20053;-75
2024/02/11 07:31:40;;;;;;;42.03;12.25;;;;;;;8.74;100.00;98635.09;6253311;28;20049;-74
2024/02/11 07:34:42;;;;;;;40.42;12.20;;;;;;;8.73;100.00;98649.16;6252517;28;20072;-75
2024/02/11 07:37:44;;;;;;;34.40;12.63;;;;;;;8.79;100.00;98646.03;6264230;28;20052;-75
2024/02/11 07:40:49;;;;;;;34.80;11.57;;;;;;;8.81;100.00;98651.13;6277107;28;20398;-76
2024/02/11 07:43:51;;;;;;;40.15;10.52;;;;;;;8.78;100.00;98652.22;6275218;28;20460;-76
2024/02/11 07:46:53;;;;;;;39.22;11.70;;;;;;;8.78;100.00;98654.84;6277105;28;20052;-75
2024/02/11 07:49:54;;;;;;;35.50;12.18;;;;;;;8.77;100.00;98662.84;6276936;28;20076;-75
2024/02/11 07:52:56;;;;;;;39.83;13.30;;;;;;;8.78;100.00;98654.03;6277279;28;20052;-75
2024/02/11 07:55:59;;;;;;;32.90;11.40;;;;;;;8.75;100.00;98664.72;6277135;28;20140;-75
2024/02/11 07:59:00;;;;;;;38.63;12.32;;;;;;;8.74;100.00;98666.50;6276699;28;20052;-75
2024/02/11 08:02:01;;;;;;;40.05;11.80;;;;;;;8.75;100.00;98672.56;6276816;28;20052;-75
2024/02/11 08:05:03;;;;;;;41.17;13.80;;;;;;;8.74;100.00;98670.91;6276629;28;20433;-76
2024/02/11 08:08:04;;;;;;;36.55;12.05;;;;;;;8.72;100.00;98678.91;6276184;28;20045;-76
2024/02/11 08:11:08;;;;;;;42.25;12.73;;;;;;;8.79;100.00;98682.69;6276902;28;20045;-75
2024/02/11 08:14:09;;;;;;;32.42;10.73;;;;;;;8.80;100.00;98683.53;6276168;28;20083;-78
2024/02/11 08:17:12;;;;;;;42.10;12.77;;;;;;;8.73;100.00;98695.44;6276078;28;20052;-78
2024/02/11 08:20:15;;;;;;;42.72;12.88;;;;;;;8.73;100.00;98693.66;6276556;28;20053;-78
2024/02/11 08:23:17;;;;;;;36.85;12.05;;;;;;;8.75;100.00;98691.75;6276274;28;20041;-78
2024/02/11 08:26:20;;;;;;;37.13;10.70;;;;;;;8.76;100.00;98688.16;6276419;28;20429;-77
2024/02/11 08:29:21;;;;;;;35.15;10.77;;;;;;;8.75;100.00;98696.16;6276112;28;20099;-77
2024/02/11 08:32:23;;;;;;;35.95;11.20;;;;;;;8.74;100.00;98699.72;6276285;28;20045;-77
2024/02/11 08:35:25;;;;;;;38.22;11.32;;;;;;;8.73;100.00;98709.38;6275932;28;20364;-77
2024/02/11 08:38:26;;;;;;;36.67;10.77;;;;;;;8.76;100.00;98718.75;6275791;28;20049;-77
2024/02/11 08:41:29;;;;;;;42.65;12.20;;;;;;;8.71;100.00;98719.13;6276131;28;20090;-77
2024/02/11 08:44:30;;;;;;;33.60;11.10;;;;;;;8.74;100.00;98731.97;6275881;28;20063;-77
2024/02/11 08:47:32;;;;;;;41.15;13.02;;;;;;;8.68;100.00;98726.41;6275294;28;20045;-78
2024/02/11 08:50:33;;;;;;;44.13;12.65;;;;;;;8.63;100.00;98726.75;6275857;28;20326;-77
2024/02/11 08:53:34;;;;;;;43.53;12.75;;;;;;;8.68;100.00;98735.09;6266532;28;20041;-77
2024/02/11 08:56:39;;;;;;;40.95;12.38;;;;;;;8.73;100.00;98739.97;6268878;28;20503;-77
2024/02/11 08:59:42;;;;;;;38.50;10.63;;;;;;;8.68;100.00;98737.72;6250555;28;20104;-78
2024/02/11 09:02:43;;;;;;;39.85;12.10;;;;;;;8.68;100.00;98736.88;6268954;28;20090;-77
2024/02/11 09:05:45;;;;;;;47.05;12.55;;;;;;;8.75;100.00;98746.75;6275437;28;20049;-77
2024/02/11 09:08:46;;;;;;;39.70;12.40;;;;;;;8.79;100.00;98748.16;6275181;28;20049;-77
2024/02/11 09:11:49;;;;;;;37.95;12.63;;;;;;;8.84;100.00;98753.03;6252965;28;20124;-77
2024/02/11 09:14:50;;;;;;;47.40;13.40;;;;;;;8.84;100.00;98750.44;6250238;28;20393;-76
2024/02/11 09:17:52;;;;;;;38.67;13.18;;;;;;;8.92;100.00;98755.06;6254009;28;20060;-78
2024/02/11 09:20:53;;;;;;;38.45;12.63;;;;;;;8.96;100.00;98751.25;6267387;28;20441;-77
2024/02/11 09:23:55;;;;;;;40.88;13.07;;;;;;;8.92;100.00;98748.03;6271845;28;20128;-77
2024/02/11 09:26:57;;;;;;;37.42;12.02;;;;;;;8.92;100.00;98749.84;6272224;28;20118;-77
2024/02/11 09:29:59;;;;;;;41.10;12.82;;;;;;;9.03;100.00;98752.44;6271217;28;20449;-77
2024/02/11 09:33:01;;;;;;;45.38;13.02;;;;;;;9.00;100.00;98760.56;6274738;28;20052;-77
2024/02/11 09:36:03;;;;;;;42.10;12.52;;;;;;;8.95;100.00;98763.53;6272521;28;20195;-77
2024/02/11 09:39:04;;;;;;;37.78;12.75;;;;;;;8.95;100.00;98763.53;6271433;28;20099;-78
2024/02/11 09:42:12;;;;;;;48.55;13.30;;;;;;;8.97;100.00;98761.59;6274335;28;20041;-78
2024/02/11 09:45:17;;;;;;;43.17;13.13;;;;;;;8.97;100.00;98756.38;6273511;28;20099;-78
2024/02/11 09:48:18;;;;;;;39.78;12.38;;;;;;;9.02;100.00;98758.63;6266360;28;20423;-78
2024/02/11 09:51:22;;;;;;;43.33;11.90;;;;;;;9.03;100.00;98760.28;6275034;28;20052;-78
2024/02/11 09:54:26;;;;;;;41.53;12.05;;;;;;;9.08;100.00;98755.50;6274295;28;20056;-78
2024/02/11 09:57:29;;;;;;;33.08;12.55;;;;;;;9.13;100.00;98750.78;6274627;28;20437;-78
2024/02/11 10:00:30;;;;;;;44.08;12.60;;;;;;;9.13;100.00;98764.69;6274652;28;20529;-78
2024/02/11 10:03:33;;;;;;;38.25;12.60;;;;;;;9.04;100.00;98764.59;6274771;28;20045;-78
2024/02/11 10:06:36;;;;;;;45.05;12.80;;;;;;;9.11;100.00;98771.00;6276172;28;20056;-78
2024/02/11 10:09:37;;;;;;;45.83;13.68;;;;;;;9.03;100.00;98774.22;6279490;28;20552;-78
2024/02/11 10:12:41;;;;;;;56.67;13.80;;;;;;;9.09;100.00;98776.38;6278830;28;20041;-78
2024/02/11 10:15:44;;;;;;;40.08;12.98;;;;;;;9.07;100.00;98777.44;6278964;28;20072;-78
2024/02/11 10:18:46;;;;;;;40.78;13.63;;;;;;;9.01;100.00;98780.56;6278868;28;20070;-77
2024/02/11 10:21:47;;;;;;;45.42;13.07;;;;;;;9.00;100.00;98784.13;6275509;28;20053;-78
2024/02/11 10:24:49;;;;;;;39.47;13.65;;;;;;;9.02;100.00;98782.22;6265958;28;20049;-78
2024/02/11 10:27:52;;;;;;;51.47;14.55;;;;;;;9.00;100.00;98782.34;6268481;28;20052;-78
2024/02/11 10:30:55;;;;;;;43.20;13.93;;;;;;;9.04;100.00;98777.69;6264055;28;20060;-78
2024/02/11 10:33:57;;;;;;;40.65;12.82;;;;;;;9.14;100.00;98776.84;6273335;28;20045;-78
2024/02/11 10:37:00;;;;;;;49.88;14.55;;;;;;;9.13;100.00;98776.97;6269924;28;20053;-78
2024/02/11 10:40:04;;;;;;;44.38;14.38;;;;;;;9.26;100.00;98785.50;6278666;28;20559;-78
2024/02/11 10:43:07;;;;;;;48.60;13.63;;;;;;;9.24;100.00;98778.72;6278271;28;20048;-77
2024/02/11 10:46:08;;;;;;;42.50;12.25;;;;;;;9.21;100.00;98786.81;6278189;28;20045;-77
2024/02/11 10:49:11;;;;;;;55.05;15.40;;;;;;;9.19;100.00;98780.88;6278258;28;20045;-77
2024/02/11 10:52:16;;;;;;;44.08;12.18;;;;;;;9.11;100.00;98787.56;6278306;28;20365;-77
2024/02/11 10:55:20;;;;;;;44.03;12.98;;;;;;;9.09;100.00;98789.47;6278667;28;20056;-77
2024/02/11 10:58:28;;;;;;;45.22;13.63;;;;;;;9.09;100.00;98791.25;6277191;28;20338;-75
2024/02/11 11:01:32;;;;;;;48.20;14.17;;;;;;;9.09;100.00;98799.13;6270246;28;20045;-78
2024/02/11 11:04:34;;;;;;;43.53;13.43;;;;;;;9.10;100.00;98798.16;6271919;28;20073;-77
2024/02/11 11:07:38;;;;;;;47.08;12.63;;;;;;;9.04;100.00;98789.00;6277582;28;20365;-77
2024/02/11 11:10:40;;;;;;;49.90;13.57;;;;;;;9.05;100.00;98789.84;6273728;28;20045;-76
2024/02/11 11:13:42;;;;;;;42.85;13.40;;;;;;;8.98;100.00;98792.09;6277482;28;20045;-77
2024/02/11 11:16:47;;;;;;;40.13;13.13;;;;;;;8.94;100.00;98784.59;6277655;28;20045;-78
2024/02/11 11:19:49;;;;;;;39.60;12.95;;;;;;;9.00;100.00;98789.38;6274994;28;20069;-77
2024/02/11 11:22:51;;;;;;;44.75;13.27;;;;;;;8.99;100.00;98791.13;6275021;28;20102;-77
2024/02/11 11:25:55;;;;;;;48.28;12.77;;;;;;;8.99;100.00;98796.38;6275451;28;20049;-77
2024/02/11 11:29:03;;;;;;;42.63;13.10;;;;;;;8.96;100.00;98796.63;6275955;28;20048;-77
2024/02/11 11:32:09;;;;;;;41.88;13.07;;;;;;;8.96;100.00;98783.53;6277099;28;20104;-77
2024/02/11 11:35:12;;;;;;;44.20;12.70;;;;;;;8.94;100.00;98785.41;6277449;28;20194;-77
2024/02/11 11:38:13;;;;;;;46.53;13.30;;;;;;;8.89;100.00;98792.81;6276982;28;20052;-77
2024/02/11 11:41:14;;;;;;;42.35;14.50;;;;;;;8.92;100.00;98797.81;6277976;28;20049;-77
2024/02/11 11:44:20;;;;;;;43.45;13.85;;;;;;;8.88;100.00;98797.22;6276915;28;20352;-77
2024/02/11 11:47:23;;;;;;;54.90;15.23;;;;;;;8.89;100.00;98796.25;6269389;28;20187;-77
2024/02/11 11:50:25;;;;;;;48.33;15.15;;;;;;;8.97;100.00;98803.53;6277349;28;20056;-78
2024/02/11 11:53:27;;;;;;;44.47;14.15;;;;;;;8.98;100.00;98797.31;6277200;28;20045;-76
2024/02/11 11:56:28;;;;;;;44.83;13.07;;;;;;;9.04;100.00;98798.66;6277226;28;20356;-76
2024/02/11 11:59:31;;;;;;;37.55;12.35;;;;;;;9.05;100.00;98797.69;6275892;28;20056;-76
2024/02/11 12:02:35;;;;;;;37.78;12.43;;;;;;;9.12;100.00;98799.69;6276405;28;20041;-76
2024/02/11 12:05:36;;;;;;;44.70;12.07;;;;;;;9.03;100.00;98804.81;6276437;28;20056;-76
2024/02/11 12:08:38;;;;;;;43.63;12.93;;;;;;;9.02;100.00;98801.38;6275473;28;20049;-76
2024/02/11 12:11:39;;;;;;;48.40;13.93;;;;;;;9.11;100.00;98802.44;6275945;28;20357;-76
2024/02/11 12:14:42;;;;;;;37.83;11.27;;;;;;;9.09;100.00;98799.13;6276351;28;20049;-76
2024/02/11 12:17:43;;;;;;;47.03;12.80;;;;;;;9.10;100.00;98796.38;6276038;28;20437;-76
2024/02/11 12:20:45;;;;;;;38.92;13.73;;;;;;;9.07;100.00;98804.47;6276719;28;20053;-76
2024/02/11 12:23:46;;;;;;;38.15;13.10;;;;;;;9.09;100.00;98799.97;6275243;28;20052;-76
2024/02/11 12:26:48;;;;;;;49.05;12.13;;;;;;;9.08;100.00;98798.28;6276070;28;20049;-76
2024/02/11 12:29:56;;;;;;;41.72;13.07;;;;;;;9.11;100.00;98803.28;6275102;28;20045;-76
2024/02/11 12:32:57;;;;;;;46.05;13.20;;;;;;;9.08;100.00;98808.78;6276196;28;20135;-76
2024/02/11 12:36:06;;;;;;;41.10;13.23;;;;;;;9.11;100.00;98812.94;6276063;28;20053;-75
2024/02/11 12:39:08;;;;;;;39.45;13.00;;;;;;;9.13;100.00;98809.25;6275464;28;20105;-76
2024/02/11 12:42:10;;;;;;;37.65;11.75;;;;;;;9.18;100.00;98810.69;6275793;28;20357;-75
2024/02/11 12:45:12;;;;;;;48.80;14.55;;;;;;;9.18;100.00;98808.06;6275672;28;20049;-76
2024/02/11 12:48:14;;;;;;;41.00;13.85;;;;;;;9.14;100.00;98810.91;6275581;28;20053;-76
2024/02/11 12:51:18;;;;;;;33.22;12.68;;;;;;;9.16;100.00;98805.53;6275806;28;20056;-76
2024/02/11 12:54:19;;;;;;;37.40;12.07;;;;;;;9.16;100.00;98816.03;6275584;28;20326;-75
2024/02/11 12:57:20;;;;;;;43.38;12.02;;;;;;;9.22;100.00;98812.94;6275329;28;20048;-75
2024/02/11 13:00:23;;;;;;;41.80;11.23;;;;;;;9.28;100.00;98814.22;6275288;28;20448;-75
2024/02/11 13:03:25;;;;;;;33.72;10.90;;;;;;;9.33;100.00;98812.06;6274523;28;20037;-76
2024/02/11 13:06:26;;;;;;;31.70;11.23;;;;;;;9.36;100.00;98815.28;6273897;28;20437;-75
2024/02/11 13:09:28;;;;;;;37.28;11.68;;;;;;;9.38;100.00;98802.88;6274524;28;20059;-76
2024/02/11 13:12:33;;;;;;;33.72;11.40;;;;;;;9.39;100.00;98811.59;6275222;28;20044;-76
2024/02/11 13:15:37;;;;;;;30.83;10.18;;;;;;;9.42;100.00;98823.63;6274527;28;20330;-76
2024/02/11 13:18:39;;;;;;;36.42;10.88;;;;;;;9.39;100.00;98819.44;6271893;28;20060;-76
2024/02/11 13:21:42;;;;;;;42.30;11.75;;;;;;;9.36;100.00;98814.47;6266561;28;20088;-76
2024/02/11 13:24:44;;;;;;;28.65;10.88;;;;;;;9.36;100.00;98817.09;6270141;28;20048;-76
2024/02/11 13:27:45;;;;;;;38.65;12.30;;;;;;;9.36;100.00;98814.47;6264127;28;20128;-77
2024/02/11 13:30:51;;;;;;;28.33;10.57;;;;;;;9.37;100.00;98814.34;6270139;28;20349;-76
2024/02/11 13:33:52;;;;;;;31.83;10.93;;;;;;;9.36;100.00;98811.84;6273160;28;20056;-77
2024/02/11 13:36:54;;;;;;;28.40;10.27;;;;;;;9.42;100.00;98806.09;6268055;28;20187;-77
2024/02/11 13:39:55;;;;;;;28.90;9.98;;;;;;;9.46;100.00;98811.94;6264157;28;20072;-77
2024/02/11 13:42:56;;;;;;;34.65;12.02;;;;;;;9.44;100.00;98806.81;6271152;28;20094;-78
2024/02/11 13:45:59;;;;;;;28.73;9.93;;;;;;;9.48;100.00;98804.78;6273078;28;20053;-77
2024/02/11 13:49:01;;;;;;;28.50;9.38;;;;;;;9.50;100.00;98806.34;6268899;28;20045;-77
2024/02/11 13:52:03;;;;;;;29.55;10.45;;;;;;;9.51;100.00;98808.00;6272962;28;20057;-78
2024/02/11 13:55:08;;;;;;;27.80;10.82;;;;;;;9.49;100.00;98806.44;6272662;28;20072;-77
2024/02/11 13:58:10;;;;;;;23.80;9.38;;;;;;;9.51;100.00;98805.38;6278651;28;20129;-77
2024/02/11 14:01:13;;;;;;;30.63;10.68;;;;;;;9.51;100.00;98813.22;6278624;28;20205;-75